sensor_id;sensor_type;location;lat;lon;timestamp;P1;P2;P0
77515;PMS5003;66627;29.424;-98.496;2024-02-14T00:00:35;5;4;
77515;PMS5003;66627;29.424;-98.496;2024-02-14T00:03:00;4;4;
77515;PMS5003;66627;29.424;-98.496;2024-02-14T00:05:25;4;3;
77515;PMS5003;66627;29.424;-98.496;2024-02-14T00:07:50;3;3;
77515;PMS5003;66627;29.424;-98.496;2024-02-14T00:10:15;4;4;
77515;PMS5003;66627;29.424;-98.496;2024-02-14T00:12:41;2;2;
77515;PMS5003;66627;29.424;-98.496;2024-02-14T00:15:06;3;3;
77515;PMS5003;66627;29.424;-98.496;2024-02-14T00:17:31;6;6;
77515;PMS5003;66627;29.424;-98.496;2024-02-14T00:19:56;7;7;
77515;PMS5003;66627;29.424;-98.496;2024-02-14T00:22:21;5;5;
77515;PMS5003;66627;29.424;-98.496;2024-02-14T00:24:47;5;5;
77515;PMS5003;66627;29.424;-98.496;2024-02-14T00:27:12;6;6;
77515;PMS5003;66627;29.424;-98.496;2024-02-14T00:29:37;5;4;
77515;PMS5003;66627;29.424;-98.496;2024-02-14T00:32:03;4;4;
77515;PMS5003;66627;29.424;-98.496;2024-02-14T00:34:28;5;5;
77515;PMS5003;66627;29.424;-98.496;2024-02-14T00:36:53;6;4;
77515;PMS5003;66627;29.424;-98.496;2024-02-14T00:39:18;5;5;
77515;PMS5003;66627;29.424;-98.496;2024-02-14T00:41:45;7;7;
77515;PMS5003;66627;29.424;-98.496;2024-02-14T00:44:08;6;6;
77515;PMS5003;66627;29.424;-98.496;2024-02-14T00:46:34;6;6;
77515;PMS5003;66627;29.424;-98.496;2024-02-14T00:48:59;7;7;
77515;PMS5003;66627;29.424;-98.496;2024-02-14T00:51:24;8;8;
77515;PMS5003;66627;29.424;-98.496;2024-02-14T00:53:49;6;6;
77515;PMS5003;66627;29.424;-98.496;2024-02-14T00:56:15;7;5;
77515;PMS5003;66627;29.424;-98.496;2024-02-14T00:58:40;6;6;
77515;PMS5003;66627;29.424;-98.496;2024-02-14T01:01:05;5;5;
77515;PMS5003;66627;29.424;-98.496;2024-02-14T01:03:32;8;6;
77515;PMS5003;66627;29.424;-98.496;2024-02-14T01:05:56;5;4;
77515;PMS5003;66627;29.424;-98.496;2024-02-14T01:08:22;6;6;
77515;PMS5003;66627;29.424;-98.496;2024-02-14T01:10:46;4;4;
77515;PMS5003;66627;29.424;-98.496;2024-02-14T01:13:12;7;6;
77515;PMS5003;66627;29.424;-98.496;2024-02-14T01:15:37;5;3;
77515;PMS5003;66627;29.424;-98.496;2024-02-14T01:18:02;4;4;
77515;PMS5003;66627;29.424;-98.496;2024-02-14T01:20:27;4;2;
77515;PMS5003;66627;29.424;-98.496;2024-02-14T01:22:52;6;6;
77515;PMS5003;66627;29.424;-98.496;2024-02-14T01:25:18;5;5;
77515;PMS5003;66627;29.424;-98.496;2024-02-14T01:27:44;9;9;
77515;PMS5003;66627;29.424;-98.496;2024-02-14T01:30:08;9;9;
77515;PMS5003;66627;29.424;-98.496;2024-02-14T01:32:33;8;8;
77515;PMS5003;66627;29.424;-98.496;2024-02-14T01:34:58;10;10;
77515;PMS5003;66627;29.424;-98.496;2024-02-14T01:37:24;7;7;
77515;PMS5003;66627;29.424;-98.496;2024-02-14T01:39:49;7;7;
77515;PMS5003;66627;29.424;-98.496;2024-02-14T01:42:19;9;9;
77515;PMS5003;66627;29.424;-98.496;2024-02-14T01:44:41;10;9;
77515;PMS5003;66627;29.424;-98.496;2024-02-14T01:47:06;7;7;
77515;PMS5003;66627;29.424;-98.496;2024-02-14T01:49:31;8;7;
77515;PMS5003;66627;29.424;-98.496;2024-02-14T01:51:58;7;7;
77515;PMS5003;66627;29.424;-98.496;2024-02-14T01:54:22;6;6;
77515;PMS5003;66627;29.424;-98.496;2024-02-14T01:56:47;6;6;
77515;PMS5003;66627;29.424;-98.496;2024-02-14T01:59:12;9;7;
77515;PMS5003;66627;29.424;-98.496;2024-02-14T02:01:37;7;6;
77515;PMS5003;66627;29.424;-98.496;2024-02-14T02:04:04;6;6;
77515;PMS5003;66627;29.424;-98.496;2024-02-14T02:06:27;4;4;
77515;PMS5003;66627;29.424;-98.496;2024-02-14T02:08:53;2;2;
77515;PMS5003;66627;29.424;-98.496;2024-02-14T02:11:18;4;4;
77515;PMS5003;66627;29.424;-98.496;2024-02-14T02:13:44;5;4;
77515;PMS5003;66627;29.424;-98.496;2024-02-14T02:16:09;4;4;
77515;PMS5003;66627;29.424;-98.496;2024-02-14T02:18:34;6;4;
77515;PMS5003;66627;29.424;-98.496;2024-02-14T02:20:59;6;6;
77515;PMS5003;66627;29.424;-98.496;2024-02-14T02:23:24;6;6;
77515;PMS5003;66627;29.424;-98.496;2024-02-14T02:25:49;5;3;
77515;PMS5003;66627;29.424;-98.496;2024-02-14T02:28:15;3;3;
77515;PMS5003;66627;29.424;-98.496;2024-02-14T02:30:40;2;2;
77515;PMS5003;66627;29.424;-98.496;2024-02-14T02:33:06;4;4;
77515;PMS5003;66627;29.424;-98.496;2024-02-14T02:35:30;3;3;
77515;PMS5003;66627;29.424;-98.496;2024-02-14T02:37:55;6;6;
77515;PMS5003;66627;29.424;-98.496;2024-02-14T02:40:20;5;5;
77515;PMS5003;66627;29.424;-98.496;2024-02-14T02:42:47;5;5;
77515;PMS5003;66627;29.424;-98.496;2024-02-14T02:45:12;4;4;
77515;PMS5003;66627;29.424;-98.496;2024-02-14T02:47:36;5;5;
77515;PMS5003;66627;29.424;-98.496;2024-02-14T02:50:02;4;4;
77515;PMS5003;66627;29.424;-98.496;2024-02-14T02:52:28;4;4;
77515;PMS5003;66627;29.424;-98.496;2024-02-14T02:54:52;3;3;
77515;PMS5003;66627;29.424;-98.496;2024-02-14T02:57:18;4;4;
77515;PMS5003;66627;29.424;-98.496;2024-02-14T02:59:42;3;3;
77515;PMS5003;66627;29.424;-98.496;2024-02-14T03:02:08;3;3;
77515;PMS5003;66627;29.424;-98.496;2024-02-14T03:04:33;5;3;
77515;PMS5003;66627;29.424;-98.496;2024-02-14T03:06:58;5;5;
77515;PMS5003;66627;29.424;-98.496;2024-02-14T03:09:24;5;5;
77515;PMS5003;66627;29.424;-98.496;2024-02-14T03:11:50;2;2;
77515;PMS5003;66627;29.424;-98.496;2024-02-14T03:14:14;2;2;
77515;PMS5003;66627;29.424;-98.496;2024-02-14T03:16:39;3;3;
77515;PMS5003;66627;29.424;-98.496;2024-02-14T03:19:04;2;2;
77515;PMS5003;66627;29.424;-98.496;2024-02-14T03:21:30;4;4;
77515;PMS5003;66627;29.424;-98.496;2024-02-14T03:23:55;4;4;
77515;PMS5003;66627;29.424;-98.496;2024-02-14T03:26:22;4;4;
77515;PMS5003;66627;29.424;-98.496;2024-02-14T03:28:46;3;3;
77515;PMS5003;66627;29.424;-98.496;2024-02-14T03:31:11;3;3;
77515;PMS5003;66627;29.424;-98.496;2024-02-14T03:33:36;4;4;
77515;PMS5003;66627;29.424;-98.496;2024-02-14T03:36:01;4;4;
77515;PMS5003;66627;29.424;-98.496;2024-02-14T03:38:27;3;3;
77515;PMS5003;66627;29.424;-98.496;2024-02-14T03:40:51;3;3;
77515;PMS5003;66627;29.424;-98.496;2024-02-14T03:43:17;2;2;
77515;PMS5003;66627;29.424;-98.496;2024-02-14T03:45:42;3;3;
77515;PMS5003;66627;29.424;-98.496;2024-02-14T03:48:08;3;3;
77515;PMS5003;66627;29.424;-98.496;2024-02-14T03:50:33;5;5;
77515;PMS5003;66627;29.424;-98.496;2024-02-14T03:52:58;5;4;
77515;PMS5003;66627;29.424;-98.496;2024-02-14T03:55:23;3;3;
77515;PMS5003;66627;29.424;-98.496;2024-02-14T03:57:48;3;3;
77515;PMS5003;66627;29.424;-98.496;2024-02-14T04:00:14;3;3;
77515;PMS5003;66627;29.424;-98.496;2024-02-14T04:02:39;3;3;
77515;PMS5003;66627;29.424;-98.496;2024-02-14T04:05:04;6;4;
77515;PMS5003;66627;29.424;-98.496;2024-02-14T04:07:29;3;3;
77515;PMS5003;66627;29.424;-98.496;2024-02-14T04:09:54;4;3;
77515;PMS5003;66627;29.424;-98.496;2024-02-14T04:12:19;3;3;
77515;PMS5003;66627;29.424;-98.496;2024-02-14T04:14:45;3;3;
77515;PMS5003;66627;29.424;-98.496;2024-02-14T04:17:10;2;2;
77515;PMS5003;66627;29.424;-98.496;2024-02-14T04:19:35;2;2;
77515;PMS5003;66627;29.424;-98.496;2024-02-14T04:22:01;3;3;
77515;PMS5003;66627;29.424;-98.496;2024-02-14T04:24:26;2;2;
77515;PMS5003;66627;29.424;-98.496;2024-02-14T04:26:53;4;4;
77515;PMS5003;66627;29.424;-98.496;2024-02-14T04:29:17;4;3;
77515;PMS5003;66627;29.424;-98.496;2024-02-14T04:31:42;5;5;
77515;PMS5003;66627;29.424;-98.496;2024-02-14T04:34:07;5;4;
77515;PMS5003;66627;29.424;-98.496;2024-02-14T04:36:32;6;6;
77515;PMS5003;66627;29.424;-98.496;2024-02-14T04:38:57;8;7;
77515;PMS5003;66627;29.424;-98.496;2024-02-14T04:41:23;8;7;
77515;PMS5003;66627;29.424;-98.496;2024-02-14T04:43:47;5;5;
77515;PMS5003;66627;29.424;-98.496;2024-02-14T04:46:13;4;4;
77515;PMS5003;66627;29.424;-98.496;2024-02-14T04:48:38;4;3;
77515;PMS5003;66627;29.424;-98.496;2024-02-14T04:51:04;5;5;
77515;PMS5003;66627;29.424;-98.496;2024-02-14T04:53:29;4;4;
77515;PMS5003;66627;29.424;-98.496;2024-02-14T04:55:54;4;4;
77515;PMS5003;66627;29.424;-98.496;2024-02-14T04:58:20;4;4;
77515;PMS5003;66627;29.424;-98.496;2024-02-14T05:00:44;7;6;
77515;PMS5003;66627;29.424;-98.496;2024-02-14T05:03:10;6;4;
77515;PMS5003;66627;29.424;-98.496;2024-02-14T05:05:35;3;3;
77515;PMS5003;66627;29.424;-98.496;2024-02-14T05:08:00;4;4;
77515;PMS5003;66627;29.424;-98.496;2024-02-14T05:10:25;5;4;
77515;PMS5003;66627;29.424;-98.496;2024-02-14T05:12:51;5;5;
77515;PMS5003;66627;29.424;-98.496;2024-02-14T05:15:16;5;5;
77515;PMS5003;66627;29.424;-98.496;2024-02-14T05:17:42;4;4;
77515;PMS5003;66627;29.424;-98.496;2024-02-14T05:20:07;7;7;
77515;PMS5003;66627;29.424;-98.496;2024-02-14T05:22:31;6;6;
77515;PMS5003;66627;29.424;-98.496;2024-02-14T05:24:57;4;4;
77515;PMS5003;66627;29.424;-98.496;2024-02-14T05:27:22;5;4;
77515;PMS5003;66627;29.424;-98.496;2024-02-14T05:29:47;4;3;
77515;PMS5003;66627;29.424;-98.496;2024-02-14T05:32:12;6;4;
77515;PMS5003;66627;29.424;-98.496;2024-02-14T05:34:37;6;6;
77515;PMS5003;66627;29.424;-98.496;2024-02-14T05:37:03;5;4;
77515;PMS5003;66627;29.424;-98.496;2024-02-14T05:39:28;4;4;
77515;PMS5003;66627;29.424;-98.496;2024-02-14T05:41:53;4;3;
77515;PMS5003;66627;29.424;-98.496;2024-02-14T05:44:20;3;3;
77515;PMS5003;66627;29.424;-98.496;2024-02-14T05:46:44;5;4;
77515;PMS5003;66627;29.424;-98.496;2024-02-14T05:49:09;2;2;
77515;PMS5003;66627;29.424;-98.496;2024-02-14T05:51:34;6;4;
77515;PMS5003;66627;29.424;-98.496;2024-02-14T05:53:59;2;2;
77515;PMS5003;66627;29.424;-98.496;2024-02-14T05:56:25;4;4;
77515;PMS5003;66627;29.424;-98.496;2024-02-14T05:58:50;4;4;
77515;PMS5003;66627;29.424;-98.496;2024-02-14T06:01:18;8;7;
77515;PMS5003;66627;29.424;-98.496;2024-02-14T06:03:41;7;5;
77515;PMS5003;66627;29.424;-98.496;2024-02-14T06:06:06;7;7;
77515;PMS5003;66627;29.424;-98.496;2024-02-14T06:08:31;5;5;
77515;PMS5003;66627;29.424;-98.496;2024-02-14T06:10:57;6;5;
77515;PMS5003;66627;29.424;-98.496;2024-02-14T06:13:22;5;5;
77515;PMS5003;66627;29.424;-98.496;2024-02-14T06:15:48;5;5;
77515;PMS5003;66627;29.424;-98.496;2024-02-14T06:18:12;5;3;
77515;PMS5003;66627;29.424;-98.496;2024-02-14T06:20:39;4;4;
77515;PMS5003;66627;29.424;-98.496;2024-02-14T06:23:03;4;4;
77515;PMS5003;66627;29.424;-98.496;2024-02-14T06:25:29;6;5;
77515;PMS5003;66627;29.424;-98.496;2024-02-14T06:27:55;5;5;
77515;PMS5003;66627;29.424;-98.496;2024-02-14T06:30:21;6;5;
77515;PMS5003;66627;29.424;-98.496;2024-02-14T06:32:45;3;3;
77515;PMS5003;66627;29.424;-98.496;2024-02-14T06:35:10;4;4;
77515;PMS5003;66627;29.424;-98.496;2024-02-14T06:37:36;5;4;
77515;PMS5003;66627;29.424;-98.496;2024-02-14T06:40:02;6;5;
77515;PMS5003;66627;29.424;-98.496;2024-02-14T06:42:27;6;6;
77515;PMS5003;66627;29.424;-98.496;2024-02-14T06:44:52;4;4;
77515;PMS5003;66627;29.424;-98.496;2024-02-14T06:47:17;3;3;
77515;PMS5003;66627;29.424;-98.496;2024-02-14T06:49:43;5;5;
77515;PMS5003;66627;29.424;-98.496;2024-02-14T06:52:08;4;3;
77515;PMS5003;66627;29.424;-98.496;2024-02-14T06:54:34;4;4;
77515;PMS5003;66627;29.424;-98.496;2024-02-14T06:56:58;6;6;
77515;PMS5003;66627;29.424;-98.496;2024-02-14T06:59:24;4;4;
77515;PMS5003;66627;29.424;-98.496;2024-02-14T07:01:49;6;6;
77515;PMS5003;66627;29.424;-98.496;2024-02-14T07:04:15;7;5;
77515;PMS5003;66627;29.424;-98.496;2024-02-14T07:06:39;8;6;
77515;PMS5003;66627;29.424;-98.496;2024-02-14T07:09:05;6;6;
77515;PMS5003;66627;29.424;-98.496;2024-02-14T07:11:30;5;5;
77515;PMS5003;66627;29.424;-98.496;2024-02-14T07:13:55;5;5;
77515;PMS5003;66627;29.424;-98.496;2024-02-14T07:16:20;9;5;
77515;PMS5003;66627;29.424;-98.496;2024-02-14T07:18:45;5;5;
77515;PMS5003;66627;29.424;-98.496;2024-02-14T07:21:11;9;8;
77515;PMS5003;66627;29.424;-98.496;2024-02-14T07:23:36;7;7;
77515;PMS5003;66627;29.424;-98.496;2024-02-14T07:26:01;4;4;
77515;PMS5003;66627;29.424;-98.496;2024-02-14T07:28:26;4;4;
77515;PMS5003;66627;29.424;-98.496;2024-02-14T07:30:53;10;5;
77515;PMS5003;66627;29.424;-98.496;2024-02-14T07:33:17;5;4;
77515;PMS5003;66627;29.424;-98.496;2024-02-14T07:35:42;5;5;
77515;PMS5003;66627;29.424;-98.496;2024-02-14T07:38:08;6;6;
77515;PMS5003;66627;29.424;-98.496;2024-02-14T07:40:33;5;5;
77515;PMS5003;66627;29.424;-98.496;2024-02-14T07:42:59;7;6;
77515;PMS5003;66627;29.424;-98.496;2024-02-14T07:45:24;6;6;
77515;PMS5003;66627;29.424;-98.496;2024-02-14T07:47:49;6;6;
77515;PMS5003;66627;29.424;-98.496;2024-02-14T07:50:15;5;5;
77515;PMS5003;66627;29.424;-98.496;2024-02-14T07:52:41;6;5;
77515;PMS5003;66627;29.424;-98.496;2024-02-14T07:55:05;6;6;
77515;PMS5003;66627;29.424;-98.496;2024-02-14T07:57:31;11;8;
77515;PMS5003;66627;29.424;-98.496;2024-02-14T07:59:56;13;8;
77515;PMS5003;66627;29.424;-98.496;2024-02-14T08:02:22;7;7;
77515;PMS5003;66627;29.424;-98.496;2024-02-14T08:04:46;9;7;
77515;PMS5003;66627;29.424;-98.496;2024-02-14T08:07:12;7;7;
77515;PMS5003;66627;29.424;-98.496;2024-02-14T08:09:37;6;6;
77515;PMS5003;66627;29.424;-98.496;2024-02-14T08:12:02;6;6;
77515;PMS5003;66627;29.424;-98.496;2024-02-14T08:14:28;7;6;
77515;PMS5003;66627;29.424;-98.496;2024-02-14T08:16:54;4;4;
77515;PMS5003;66627;29.424;-98.496;2024-02-14T08:19:18;6;6;
77515;PMS5003;66627;29.424;-98.496;2024-02-14T08:21:44;8;7;
77515;PMS5003;66627;29.424;-98.496;2024-02-14T08:24:09;5;5;
77515;PMS5003;66627;29.424;-98.496;2024-02-14T08:26:35;7;7;
77515;PMS5003;66627;29.424;-98.496;2024-02-14T08:29:00;5;5;
77515;PMS5003;66627;29.424;-98.496;2024-02-14T08:31:25;8;8;
77515;PMS5003;66627;29.424;-98.496;2024-02-14T08:33:51;6;6;
77515;PMS5003;66627;29.424;-98.496;2024-02-14T08:36:16;6;6;
77515;PMS5003;66627;29.424;-98.496;2024-02-14T08:38:42;9;9;
77515;PMS5003;66627;29.424;-98.496;2024-02-14T08:41:07;7;6;
77515;PMS5003;66627;29.424;-98.496;2024-02-14T08:43:32;8;8;
77515;PMS5003;66627;29.424;-98.496;2024-02-14T08:45:57;7;6;
77515;PMS5003;66627;29.424;-98.496;2024-02-14T08:48:23;6;6;
77515;PMS5003;66627;29.424;-98.496;2024-02-14T08:50:49;7;7;
77515;PMS5003;66627;29.424;-98.496;2024-02-14T08:53:14;7;7;
77515;PMS5003;66627;29.424;-98.496;2024-02-14T08:55:40;9;8;
77515;PMS5003;66627;29.424;-98.496;2024-02-14T08:58:05;8;8;
77515;PMS5003;66627;29.424;-98.496;2024-02-14T09:00:31;8;8;
77515;PMS5003;66627;29.424;-98.496;2024-02-14T09:02:57;6;6;
77515;PMS5003;66627;29.424;-98.496;2024-02-14T09:05:21;5;5;
77515;PMS5003;66627;29.424;-98.496;2024-02-14T09:07:46;8;7;
77515;PMS5003;66627;29.424;-98.496;2024-02-14T09:10:12;5;5;
77515;PMS5003;66627;29.424;-98.496;2024-02-14T09:12:37;6;6;
77515;PMS5003;66627;29.424;-98.496;2024-02-14T09:15:03;9;6;
77515;PMS5003;66627;29.424;-98.496;2024-02-14T09:17:27;7;7;
77515;PMS5003;66627;29.424;-98.496;2024-02-14T09:19:52;7;7;
77515;PMS5003;66627;29.424;-98.496;2024-02-14T09:22:19;7;7;
77515;PMS5003;66627;29.424;-98.496;2024-02-14T09:24:45;6;6;
77515;PMS5003;66627;29.424;-98.496;2024-02-14T09:27:09;6;6;
77515;PMS5003;66627;29.424;-98.496;2024-02-14T09:29:34;7;7;
77515;PMS5003;66627;29.424;-98.496;2024-02-14T09:32:01;8;8;
77515;PMS5003;66627;29.424;-98.496;2024-02-14T09:34:25;6;6;
77515;PMS5003;66627;29.424;-98.496;2024-02-14T09:36:51;5;5;
77515;PMS5003;66627;29.424;-98.496;2024-02-14T09:39:16;9;9;
77515;PMS5003;66627;29.424;-98.496;2024-02-14T09:41:42;6;6;
77515;PMS5003;66627;29.424;-98.496;2024-02-14T09:44:07;11;11;
77515;PMS5003;66627;29.424;-98.496;2024-02-14T09:46:33;10;8;
77515;PMS5003;66627;29.424;-98.496;2024-02-14T09:48:58;7;7;
77515;PMS5003;66627;29.424;-98.496;2024-02-14T09:51:23;8;8;
77515;PMS5003;66627;29.424;-98.496;2024-02-14T09:53:49;12;9;
77515;PMS5003;66627;29.424;-98.496;2024-02-14T09:56:13;6;6;
77515;PMS5003;66627;29.424;-98.496;2024-02-14T09:58:40;8;8;
77515;PMS5003;66627;29.424;-98.496;2024-02-14T10:01:05;8;7;
77515;PMS5003;66627;29.424;-98.496;2024-02-14T10:03:29;9;8;
77515;PMS5003;66627;29.424;-98.496;2024-02-14T10:05:55;11;8;
77515;PMS5003;66627;29.424;-98.496;2024-02-14T10:08:22;10;10;
77515;PMS5003;66627;29.424;-98.496;2024-02-14T10:10:47;7;7;
77515;PMS5003;66627;29.424;-98.496;2024-02-14T10:13:13;8;6;
77515;PMS5003;66627;29.424;-98.496;2024-02-14T10:15:40;10;9;
77515;PMS5003;66627;29.424;-98.496;2024-02-14T10:18:03;7;7;
77515;PMS5003;66627;29.424;-98.496;2024-02-14T10:20:29;7;6;
77515;PMS5003;66627;29.424;-98.496;2024-02-14T10:23:00;6;6;
77515;PMS5003;66627;29.424;-98.496;2024-02-14T10:25:20;8;7;
77515;PMS5003;66627;29.424;-98.496;2024-02-14T10:27:46;7;7;
77515;PMS5003;66627;29.424;-98.496;2024-02-14T10:30:12;8;8;
77515;PMS5003;66627;29.424;-98.496;2024-02-14T10:32:37;8;8;
77515;PMS5003;66627;29.424;-98.496;2024-02-14T10:35:04;10;7;
77515;PMS5003;66627;29.424;-98.496;2024-02-14T10:37:28;9;8;
77515;PMS5003;66627;29.424;-98.496;2024-02-14T10:39:54;12;9;
77515;PMS5003;66627;29.424;-98.496;2024-02-14T10:42:19;10;8;
77515;PMS5003;66627;29.424;-98.496;2024-02-14T10:44:45;8;8;
77515;PMS5003;66627;29.424;-98.496;2024-02-14T10:47:10;8;8;
77515;PMS5003;66627;29.424;-98.496;2024-02-14T10:49:35;7;7;
77515;PMS5003;66627;29.424;-98.496;2024-02-14T10:52:07;8;8;
77515;PMS5003;66627;29.424;-98.496;2024-02-14T10:54:28;11;11;
77515;PMS5003;66627;29.424;-98.496;2024-02-14T10:56:52;5;5;
77515;PMS5003;66627;29.424;-98.496;2024-02-14T10:59:20;7;7;
77515;PMS5003;66627;29.424;-98.496;2024-02-14T11:01:43;6;6;
77515;PMS5003;66627;29.424;-98.496;2024-02-14T11:04:08;7;5;
77515;PMS5003;66627;29.424;-98.496;2024-02-14T11:09:00;8;8;
77515;PMS5003;66627;29.424;-98.496;2024-02-14T11:11:24;9;8;
77515;PMS5003;66627;29.424;-98.496;2024-02-14T11:13:52;7;7;
77515;PMS5003;66627;29.424;-98.496;2024-02-14T11:16:15;8;7;
77515;PMS5003;66627;29.424;-98.496;2024-02-14T11:18:39;9;9;
77515;PMS5003;66627;29.424;-98.496;2024-02-14T11:21:15;10;8;
77515;PMS5003;66627;29.424;-98.496;2024-02-14T11:23:31;10;8;
77515;PMS5003;66627;29.424;-98.496;2024-02-14T11:26:00;7;7;
77515;PMS5003;66627;29.424;-98.496;2024-02-14T11:28:24;9;9;
77515;PMS5003;66627;29.424;-98.496;2024-02-14T11:30:47;7;7;
77515;PMS5003;66627;29.424;-98.496;2024-02-14T11:33:15;9;9;
77515;PMS5003;66627;29.424;-98.496;2024-02-14T11:35:39;7;7;
77515;PMS5003;66627;29.424;-98.496;2024-02-14T11:38:03;8;8;
77515;PMS5003;66627;29.424;-98.496;2024-02-14T11:40:28;9;9;
77515;PMS5003;66627;29.424;-98.496;2024-02-14T11:42:55;10;8;
77515;PMS5003;66627;29.424;-98.496;2024-02-14T11:45:19;9;9;
77515;PMS5003;66627;29.424;-98.496;2024-02-14T11:47:45;10;9;
77515;PMS5003;66627;29.424;-98.496;2024-02-14T11:50:09;11;11;
77515;PMS5003;66627;29.424;-98.496;2024-02-14T11:52:35;11;9;
77515;PMS5003;66627;29.424;-98.496;2024-02-14T11:55:00;7;7;
77515;PMS5003;66627;29.424;-98.496;2024-02-14T11:57:26;10;9;
77515;PMS5003;66627;29.424;-98.496;2024-02-14T11:59:52;10;9;
77515;PMS5003;66627;29.424;-98.496;2024-02-14T12:02:16;10;9;
77515;PMS5003;66627;29.424;-98.496;2024-02-14T12:04:42;10;9;
77515;PMS5003;66627;29.424;-98.496;2024-02-14T12:07:07;11;9;
77515;PMS5003;66627;29.424;-98.496;2024-02-14T12:09:33;11;11;
77515;PMS5003;66627;29.424;-98.496;2024-02-14T12:11:59;6;6;
77515;PMS5003;66627;29.424;-98.496;2024-02-14T12:14:25;10;8;
77515;PMS5003;66627;29.424;-98.496;2024-02-14T12:16:50;11;9;
77515;PMS5003;66627;29.424;-98.496;2024-02-14T12:19:15;11;10;
77515;PMS5003;66627;29.424;-98.496;2024-02-14T12:21:42;13;12;
77515;PMS5003;66627;29.424;-98.496;2024-02-14T12:24:06;10;10;
77515;PMS5003;66627;29.424;-98.496;2024-02-14T12:26:31;10;9;
77515;PMS5003;66627;29.424;-98.496;2024-02-14T12:28:56;10;10;
77515;PMS5003;66627;29.424;-98.496;2024-02-14T12:31:22;9;9;
77515;PMS5003;66627;29.424;-98.496;2024-02-14T12:33:47;8;8;
77515;PMS5003;66627;29.424;-98.496;2024-02-14T12:36:12;10;10;
77515;PMS5003;66627;29.424;-98.496;2024-02-14T12:38:38;9;9;
77515;PMS5003;66627;29.424;-98.496;2024-02-14T12:41:04;9;9;
77515;PMS5003;66627;29.424;-98.496;2024-02-14T12:43:29;10;9;
77515;PMS5003;66627;29.424;-98.496;2024-02-14T12:45:55;11;10;
77515;PMS5003;66627;29.424;-98.496;2024-02-14T12:48:23;10;9;
77515;PMS5003;66627;29.424;-98.496;2024-02-14T12:50:46;9;7;
77515;PMS5003;66627;29.424;-98.496;2024-02-14T12:53:12;10;10;
77515;PMS5003;66627;29.424;-98.496;2024-02-14T12:55:37;8;7;
77515;PMS5003;66627;29.424;-98.496;2024-02-14T12:58:02;10;10;
77515;PMS5003;66627;29.424;-98.496;2024-02-14T13:00:28;8;7;
77515;PMS5003;66627;29.424;-98.496;2024-02-14T13:02:54;10;9;
77515;PMS5003;66627;29.424;-98.496;2024-02-14T13:05:19;10;10;
77515;PMS5003;66627;29.424;-98.496;2024-02-14T13:07:45;10;10;
77515;PMS5003;66627;29.424;-98.496;2024-02-14T13:10:10;11;11;
77515;PMS5003;66627;29.424;-98.496;2024-02-14T13:12:35;11;10;
77515;PMS5003;66627;29.424;-98.496;2024-02-14T13:15:02;11;8;
77515;PMS5003;66627;29.424;-98.496;2024-02-14T13:17:26;13;8;
77515;PMS5003;66627;29.424;-98.496;2024-02-14T13:19:52;11;9;
77515;PMS5003;66627;29.424;-98.496;2024-02-14T13:22:18;10;9;
77515;PMS5003;66627;29.424;-98.496;2024-02-14T13:24:45;10;7;
77515;PMS5003;66627;29.424;-98.496;2024-02-14T13:27:10;11;9;
77515;PMS5003;66627;29.424;-98.496;2024-02-14T13:29:36;11;9;
77515;PMS5003;66627;29.424;-98.496;2024-02-14T13:32:01;11;11;
77515;PMS5003;66627;29.424;-98.496;2024-02-14T13:34:26;7;7;
77515;PMS5003;66627;29.424;-98.496;2024-02-14T13:36:51;11;7;
77515;PMS5003;66627;29.424;-98.496;2024-02-14T13:39:17;11;9;
77515;PMS5003;66627;29.424;-98.496;2024-02-14T13:41:43;10;10;
77515;PMS5003;66627;29.424;-98.496;2024-02-14T13:44:08;13;13;
77515;PMS5003;66627;29.424;-98.496;2024-02-14T13:46:34;12;12;
77515;PMS5003;66627;29.424;-98.496;2024-02-14T13:49:00;12;10;
77515;PMS5003;66627;29.424;-98.496;2024-02-14T13:51:26;14;10;
77515;PMS5003;66627;29.424;-98.496;2024-02-14T13:53:50;8;8;
77515;PMS5003;66627;29.424;-98.496;2024-02-14T13:56:16;10;9;
77515;PMS5003;66627;29.424;-98.496;2024-02-14T13:58:42;10;8;
77515;PMS5003;66627;29.424;-98.496;2024-02-14T14:01:07;10;10;
77515;PMS5003;66627;29.424;-98.496;2024-02-14T14:03:33;11;10;
77515;PMS5003;66627;29.424;-98.496;2024-02-14T14:05:58;11;10;
77515;PMS5003;66627;29.424;-98.496;2024-02-14T14:08:24;14;10;
77515;PMS5003;66627;29.424;-98.496;2024-02-14T14:10:51;8;8;
77515;PMS5003;66627;29.424;-98.496;2024-02-14T14:13:14;8;8;
77515;PMS5003;66627;29.424;-98.496;2024-02-14T14:15:41;11;10;
77515;PMS5003;66627;29.424;-98.496;2024-02-14T14:18:05;9;9;
77515;PMS5003;66627;29.424;-98.496;2024-02-14T14:20:30;11;10;
77515;PMS5003;66627;29.424;-98.496;2024-02-14T14:22:56;14;11;
77515;PMS5003;66627;29.424;-98.496;2024-02-14T14:25:22;12;10;
77515;PMS5003;66627;29.424;-98.496;2024-02-14T14:27:49;12;11;
77515;PMS5003;66627;29.424;-98.496;2024-02-14T14:30:13;13;13;
77515;PMS5003;66627;29.424;-98.496;2024-02-14T14:32:39;14;14;
77515;PMS5003;66627;29.424;-98.496;2024-02-14T14:35:05;12;11;
77515;PMS5003;66627;29.424;-98.496;2024-02-14T14:37:30;8;8;
77515;PMS5003;66627;29.424;-98.496;2024-02-14T14:39:55;13;10;
77515;PMS5003;66627;29.424;-98.496;2024-02-14T14:42:21;14;12;
77515;PMS5003;66627;29.424;-98.496;2024-02-14T14:44:46;13;12;
77515;PMS5003;66627;29.424;-98.496;2024-02-14T14:47:12;10;10;
77515;PMS5003;66627;29.424;-98.496;2024-02-14T14:49:37;13;13;
77515;PMS5003;66627;29.424;-98.496;2024-02-14T14:52:03;13;13;
77515;PMS5003;66627;29.424;-98.496;2024-02-14T14:54:27;14;11;
77515;PMS5003;66627;29.424;-98.496;2024-02-14T14:56:53;10;10;
77515;PMS5003;66627;29.424;-98.496;2024-02-14T14:59:18;11;11;
77515;PMS5003;66627;29.424;-98.496;2024-02-14T15:01:44;12;10;
77515;PMS5003;66627;29.424;-98.496;2024-02-14T15:04:09;10;10;
77515;PMS5003;66627;29.424;-98.496;2024-02-14T15:06:34;14;12;
77515;PMS5003;66627;29.424;-98.496;2024-02-14T15:09:00;13;12;
77515;PMS5003;66627;29.424;-98.496;2024-02-14T15:11:25;11;10;
77515;PMS5003;66627;29.424;-98.496;2024-02-14T15:13:51;13;11;
77515;PMS5003;66627;29.424;-98.496;2024-02-14T15:16:16;11;9;
77515;PMS5003;66627;29.424;-98.496;2024-02-14T15:18:42;9;7;
77515;PMS5003;66627;29.424;-98.496;2024-02-14T15:21:07;12;9;
77515;PMS5003;66627;29.424;-98.496;2024-02-14T15:23:32;7;7;
77515;PMS5003;66627;29.424;-98.496;2024-02-14T15:25:58;8;7;
77515;PMS5003;66627;29.424;-98.496;2024-02-14T15:28:23;12;9;
77515;PMS5003;66627;29.424;-98.496;2024-02-14T15:30:47;6;5;
77515;PMS5003;66627;29.424;-98.496;2024-02-14T15:33:13;6;6;
77515;PMS5003;66627;29.424;-98.496;2024-02-14T15:35:38;5;5;
77515;PMS5003;66627;29.424;-98.496;2024-02-14T15:38:03;6;5;
77515;PMS5003;66627;29.424;-98.496;2024-02-14T15:40:30;5;5;
77515;PMS5003;66627;29.424;-98.496;2024-02-14T15:42:53;10;8;
77515;PMS5003;66627;29.424;-98.496;2024-02-14T15:45:19;6;6;
77515;PMS5003;66627;29.424;-98.496;2024-02-14T15:47:45;6;5;
77515;PMS5003;66627;29.424;-98.496;2024-02-14T15:50:10;6;6;
77515;PMS5003;66627;29.424;-98.496;2024-02-14T15:52:34;7;5;
77515;PMS5003;66627;29.424;-98.496;2024-02-14T15:55:00;8;8;
77515;PMS5003;66627;29.424;-98.496;2024-02-14T15:57:26;10;8;
77515;PMS5003;66627;29.424;-98.496;2024-02-14T15:59:50;6;6;